Time;durP1;ratioP1;P1;durP2;ratioP2;P2;SDS_P1;SDS_P2;PMS_P1;PMS_P2;Temp;Humidity;BMP_temperature;BMP_pressure;BME280_temperature;BME280_humidity;BME280_pressure;Samples;Min_cycle;Max_cycle;Signal;HPM_P1;HPM_P2
2022/04/16 00:02:51;;;;;;;38.07;22.90;;;;;;;6.33;97.77;99324.37;2290900;78;20944;-84
2022/04/16 00:05:53;;;;;;;36.57;24.17;;;;;;;6.29;97.47;99327.67;2290942;78;21043;-84
2022/04/16 00:08:52;;;;;;;33.33;20.27;;;;;;;6.29;98.05;99323.78;2290864;78;20994;-87
2022/04/16 00:11:53;;;;;;;31.63;19.80;;;;;;;6.28;97.98;99329.80;2291234;78;21341;-83
2022/04/16 00:14:53;;;;;;;33.60;20.53;;;;;;;6.26;98.00;99327.56;2290997;78;20931;-84
2022/04/16 00:17:53;;;;;;;27.27;18.60;;;;;;;6.26;98.42;99334.05;2290845;78;21047;-84
2022/04/16 00:20:54;;;;;;;24.40;17.63;;;;;;;6.25;98.46;99333.98;2290613;78;20929;-84
2022/04/16 00:23:54;;;;;;;21.93;16.90;;;;;;;6.21;98.41;99331.70;2290951;78;20952;-83
2022/04/16 00:26:54;;;;;;;24.53;16.33;;;;;;;6.17;98.59;99330.23;2290675;78;20995;-83
2022/04/16 00:29:55;;;;;;;22.07;15.77;;;;;;;6.15;99.03;99334.48;2290887;78;20995;-83
2022/04/16 00:32:57;;;;;;;25.03;16.33;;;;;;;6.13;99.26;99334.42;2290835;78;21311;-82
2022/04/16 00:35:56;;;;;;;21.07;14.17;;;;;;;6.13;98.71;99331.83;2290892;78;21367;-82
2022/04/16 00:38:56;;;;;;;17.73;13.83;;;;;;;6.13;98.69;99343.49;2291123;78;20936;-82
2022/04/16 00:41:57;;;;;;;22.50;15.33;;;;;;;6.11;98.38;99332.59;2290922;78;21292;-85
2022/04/16 00:44:57;;;;;;;19.87;14.77;;;;;;;6.12;98.79;99339.14;2291015;78;20940;-85
2022/04/16 00:47:59;;;;;;;22.37;15.10;;;;;;;6.13;98.75;99336.13;2291332;78;21038;-86
2022/04/16 00:51:02;;;;;;;14.90;12.70;;;;;;;6.12;98.58;99339.55;2291491;78;20964;-85
2022/04/16 00:54:00;;;;;;;17.77;13.67;;;;;;;6.11;98.67;99337.37;2267571;78;20948;-82
2022/04/16 00:57:00;;;;;;;13.57;12.03;;;;;;;6.11;98.29;99341.67;2291296;78;21003;-83
2022/04/16 01:00:01;;;;;;;13.27;11.27;;;;;;;6.09;98.01;99342.91;2291283;78;20905;-83
2022/04/16 01:03:01;;;;;;;14.73;11.63;;;;;;;6.08;97.87;99342.44;2291760;78;20980;-87
2022/04/16 01:06:02;;;;;;;14.87;11.90;;;;;;;6.10;97.97;99343.38;2291793;78;21288;-85
2022/04/16 01:09:02;;;;;;;15.40;12.40;;;;;;;6.10;97.90;99351.56;2291578;78;20968;-85
2022/04/16 01:12:03;;;;;;;12.63;10.77;;;;;;;6.10;98.20;99352.45;2291138;77;20972;-85
2022/04/16 01:15:03;;;;;;;11.77;10.07;;;;;;;6.08;98.41;99356.70;2291504;78;20900;-83
2022/04/16 01:18:05;;;;;;;10.60;9.60;;;;;;;6.06;98.27;99354.01;2291602;78;20963;-84
2022/04/16 01:21:07;;;;;;;8.63;7.90;;;;;;;6.05;98.41;99353.55;2291938;78;20920;-84
2022/04/16 01:24:05;;;;;;;11.70;8.57;;;;;;;6.05;98.55;99359.14;2291377;78;20959;-83
2022/04/16 01:27:04;;;;;;;9.10;8.07;;;;;;;6.01;98.38;99360.73;2291515;78;21011;-84
2022/04/16 01:30:05;;;;;;;10.20;8.90;;;;;;;5.99;98.35;99358.91;2291190;78;21014;-85
2022/04/16 01:33:05;;;;;;;9.27;8.37;;;;;;;5.96;98.36;99365.27;2290962;78;20998;-85
2022/04/16 01:36:06;;;;;;;8.67;7.77;;;;;;;5.92;98.37;99377.22;2291165;78;21012;-85
2022/04/16 01:39:07;;;;;;;10.33;8.70;;;;;;;5.89;98.36;99360.27;2291052;78;21662;-87
2022/04/16 01:42:07;;;;;;;9.77;8.80;;;;;;;5.88;98.28;99367.53;2290837;78;20889;-85
2022/04/16 01:45:10;;;;;;;10.40;9.40;;;;;;;5.85;98.13;99370.00;2291283;78;20912;-85
2022/04/16 01:48:08;;;;;;;12.10;9.70;;;;;;;5.82;98.05;99372.89;2291315;78;20971;-85
2022/04/16 01:51:08;;;;;;;11.00;9.90;;;;;;;5.79;98.47;99380.12;2290813;78;21385;-86
2022/04/16 01:54:08;;;;;;;11.07;8.93;;;;;;;5.75;98.36;99381.72;2291010;78;20936;-86
2022/04/16 01:57:09;;;;;;;10.30;9.27;;;;;;;5.71;98.05;99381.53;2287661;78;21032;-84
2022/04/16 02:00:15;;;;;;;14.57;9.77;;;;;;;5.65;97.39;99405.89;2280801;78;20996;-85
2022/04/16 02:03:16;;;;;;;10.73;9.63;;;;;;;5.56;97.61;99409.00;2280524;78;21000;-85
2022/04/16 02:06:17;;;;;;;10.30;9.30;;;;;;;5.49;97.51;99403.10;2280814;78;20993;-85
2022/04/16 02:09:17;;;;;;;10.70;9.60;;;;;;;5.45;96.79;99390.86;2281086;77;21002;-85
2022/04/16 02:12:17;;;;;;;14.67;11.17;;;;;;;5.40;97.06;99397.55;2280847;78;20946;-86
2022/04/16 02:15:18;;;;;;;11.43;10.10;;;;;;;5.36;97.06;99400.42;2281294;78;21291;-83
2022/04/16 02:18:18;;;;;;;11.90;10.50;;;;;;;5.35;97.23;99404.24;2281652;78;20954;-84
2022/04/16 02:21:19;;;;;;;13.40;10.07;;;;;;;5.32;97.51;99410.59;2281646;78;20986;-84
2022/04/16 02:24:19;;;;;;;11.20;9.67;;;;;;;5.29;97.37;99415.64;2281508;78;20973;-85
2022/04/16 02:27:20;;;;;;;13.20;11.30;;;;;;;5.27;97.34;99423.34;2276165;78;20983;-84
2022/04/16 02:30:19;;;;;;;11.43;9.23;;;;;;;5.25;97.29;99418.52;2279014;78;20970;-84
2022/04/16 02:33:20;;;;;;;9.87;8.60;;;;;;;5.24;96.96;99440.03;2281617;78;20994;-85
2022/04/16 02:36:20;;;;;;;9.80;8.17;;;;;;;5.18;96.52;99429.80;2281647;78;20970;-84
2022/04/16 02:39:21;;;;;;;8.53;7.53;;;;;;;5.12;96.14;99436.48;2281616;78;21005;-84
2022/04/16 02:42:21;;;;;;;8.13;7.27;;;;;;;5.05;96.12;99434.45;2281410;77;20934;-84
2022/04/16 02:48:40;;;;;;;6.83;6.10;;;;;;;4.97;96.22;99429.36;2281654;77;20994;-84
2022/04/16 02:51:41;;;;;;;7.33;6.63;;;;;;;4.92;95.88;99436.04;2281357;77;20988;-84
2022/04/16 02:54:41;;;;;;;6.93;6.13;;;;;;;4.89;96.21;99441.08;2281618;78;20988;-85
2022/04/16 02:57:42;;;;;;;7.00;6.30;;;;;;;4.85;96.14;99430.53;2285199;78;20987;-84
2022/04/16 03:00:42;;;;;;;11.13;8.43;;;;;;;4.84;96.67;99437.81;2291352;78;20996;-84
2022/04/16 03:03:42;;;;;;;8.23;7.47;;;;;;;4.78;96.50;99447.08;2290842;78;21329;-85
2022/04/16 03:06:45;;;;;;;8.00;6.30;;;;;;;4.74;96.58;99450.34;2268320;78;21010;-85
2022/04/16 03:12:47;;;;;;;11.43;9.70;;;;;;;4.74;97.15;99452.05;2168723;81;20977;-85
2022/04/16 03:19:09;;;;;;;12.27;10.40;;;;;;;4.72;97.41;99462.33;2168803;82;21033;-84
2022/04/16 03:22:10;;;;;;;14.23;10.87;;;;;;;4.70;97.55;99463.08;2100838;84;21354;-83
2022/04/16 03:25:10;;;;;;;11.00;10.00;;;;;;;4.69;97.68;99469.06;2118167;84;21056;-84
2022/04/16 03:28:18;;;;;;;14.70;10.87;;;;;;;4.68;97.92;99469.88;2168756;82;21077;-85
2022/04/16 03:31:20;;;;;;;11.00;10.00;;;;;;;4.67;97.71;99470.70;2101012;84;20981;-84
2022/04/16 03:34:20;;;;;;;13.27;10.93;;;;;;;4.68;97.44;99478.93;2118171;84;21034;-85
2022/04/16 03:37:24;;;;;;;10.43;9.40;;;;;;;4.67;97.44;99494.85;2168794;82;20977;-85
2022/04/16 03:40:29;;;;;;;10.47;9.47;;;;;;;4.69;97.33;99481.59;2144254;82;21029;-84
2022/04/16 03:43:29;;;;;;;10.93;9.83;;;;;;;4.71;97.21;99488.13;2169019;82;21005;-83
2022/04/16 03:46:30;;;;;;;10.50;9.53;;;;;;;4.73;97.26;99494.24;2168773;82;20934;-84
2022/04/16 03:49:30;;;;;;;11.67;10.47;;;;;;;4.71;97.06;99498.05;2168932;82;21357;-86
2022/04/16 03:52:32;;;;;;;11.27;10.10;;;;;;;4.73;96.76;99503.30;2097974;84;21014;-84
2022/04/16 04:02:12;;;;;;;12.20;11.00;;;;;;;4.69;97.02;99510.44;2091423;84;21059;-85
2022/04/16 04:05:13;;;;;;;11.73;10.63;;;;;;;4.68;97.35;99516.42;2105494;85;21009;-82
2022/04/16 04:08:15;;;;;;;13.17;11.87;;;;;;;4.66;97.84;99530.98;2162849;78;21001;-84
2022/04/16 04:11:15;;;;;;;11.40;10.20;;;;;;;5.11;99.22;99536.05;2284302;78;20973;-84
2022/04/16 04:14:16;;;;;;;13.70;11.73;;;;;;;4.99;95.41;99528.63;2284077;78;21345;-85
2022/04/16 04:17:16;;;;;;;16.93;13.10;;;;;;;5.34;100.00;99537.09;2284381;78;20938;-86
2022/04/16 04:20:17;;;;;;;11.97;10.77;;;;;;;6.15;100.00;99542.73;2284065;78;20974;-83
2022/04/16 04:23:17;;;;;;;9.47;8.47;;;;;;;6.12;92.10;99543.91;2284098;78;20914;-84
2022/04/16 04:26:17;;;;;;;10.10;9.10;;;;;;;5.51;91.33;99551.65;2284188;78;20969;-85
2022/04/16 04:29:18;;;;;;;9.30;8.00;;;;;;;5.14;93.05;99559.48;2284225;78;21012;-84
2022/04/16 04:32:18;;;;;;;9.70;8.77;;;;;;;4.89;93.76;99563.08;2284001;77;21372;-84
2022/04/16 04:35:19;;;;;;;10.80;9.20;;;;;;;4.71;94.62;99557.95;2283904;78;20994;-87
2022/04/16 04:38:19;;;;;;;10.63;9.47;;;;;;;4.62;95.92;99570.45;2284245;78;20970;-84
2022/04/16 04:41:20;;;;;;;9.17;7.90;;;;;;;4.66;95.44;99576.24;2284222;77;20943;-86
2022/04/16 04:44:20;;;;;;;10.47;9.47;;;;;;;4.66;95.44;99576.24;2284470;77;20970;-84
2022/04/16 04:47:20;;;;;;;10.40;9.23;;;;;;;4.66;95.12;99580.13;2284318;77;20958;-84
2022/04/16 04:50:21;;;;;;;9.43;8.53;;;;;;;4.59;95.04;99578.06;2284361;78;21355;-83
2022/04/16 04:53:21;;;;;;;8.60;7.80;;;;;;;4.55;95.37;99596.42;2284037;77;20958;-83
2022/04/16 04:56:22;;;;;;;9.97;8.70;;;;;;;4.51;94.87;99587.16;2284292;77;20998;-83
2022/04/16 04:59:22;;;;;;;9.17;8.27;;;;;;;4.46;95.18;99591.70;2255350;77;21043;-82
2022/04/16 05:02:23;;;;;;;10.67;9.57;;;;;;;4.43;95.04;99599.72;2248907;78;20980;-81
2022/04/16 05:05:23;;;;;;;9.50;8.60;;;;;;;4.44;95.26;99602.38;2248716;78;20927;-82
2022/04/16 05:08:23;;;;;;;9.93;8.93;;;;;;;4.45;95.30;99606.73;2249127;78;20956;-83
2022/04/16 05:11:24;;;;;;;11.23;9.60;;;;;;;4.48;95.07;99610.77;2248980;79;20971;-83
2022/04/16 05:14:24;;;;;;;10.13;8.37;;;;;;;4.45;95.39;99615.78;2249095;79;21358;-82
2022/04/16 05:17:25;;;;;;;9.53;8.70;;;;;;;4.41;95.83;99615.56;2248972;78;20983;-82
2022/04/16 05:20:25;;;;;;;10.70;9.60;;;;;;;4.37;96.40;99626.16;2248382;78;20909;-85
2022/04/16 05:23:28;;;;;;;8.90;8.00;;;;;;;4.36;96.60;99619.22;2226569;79;20948;-81
2022/04/16 05:26:28;;;;;;;9.00;7.37;;;;;;;4.34;96.55;99622.14;2248912;79;20944;-84
2022/04/16 05:29:48;;;;;;;14.23;9.00;;;;;;;4.31;96.77;99629.70;2248857;79;21000;-83
2022/04/16 05:32:29;;;;;;;10.20;9.03;;;;;;;4.98;100.00;99634.64;2249389;79;21085;-83
2022/04/16 05:35:29;;;;;;;9.53;6.47;;;;;;;5.09;95.46;99630.44;2248938;78;20944;-85
2022/04/16 05:38:30;;;;;;;7.73;6.97;;;;;;;4.76;94.10;99636.63;2249448;79;20909;-83
2022/04/16 05:41:33;;;;;;;8.33;7.43;;;;;;;4.59;94.97;99635.84;2249535;79;20956;-84
2022/04/16 05:44:30;;;;;;;9.40;7.90;;;;;;;4.46;95.39;99638.23;2249667;79;21009;-84
2022/04/16 05:47:31;;;;;;;9.57;8.67;;;;;;;4.36;94.75;99646.36;2249586;79;20975;-84
2022/04/16 05:50:31;;;;;;;12.00;9.40;;;;;;;4.29;95.76;99634.32;2249438;78;21460;-84
2022/04/16 05:53:32;;;;;;;11.00;10.00;;;;;;;4.23;94.78;99658.16;2249231;78;20964;-83
2022/04/16 05:56:32;;;;;;;11.70;10.50;;;;;;;4.20;94.90;99664.47;2249140;79;20967;-84
2022/04/16 05:59:32;;;;;;;14.00;10.73;;;;;;;4.19;94.16;99669.56;2273475;77;21357;-82
2022/04/16 06:02:33;;;;;;;19.03;15.33;;;;;;;4.18;94.36;99672.55;2281204;78;20997;-82
2022/04/16 06:05:33;;;;;;;12.73;10.87;;;;;;;4.22;94.57;99676.17;2281303;78;20999;-85
2022/04/16 06:08:34;;;;;;;12.47;11.13;;;;;;;4.22;93.97;99673.19;2281520;78;21281;-82
2022/04/16 06:11:34;;;;;;;15.50;13.63;;;;;;;4.21;93.95;99676.58;2281380;78;21021;-83
2022/04/16 06:14:34;;;;;;;12.17;11.00;;;;;;;4.23;94.13;99677.55;2281292;78;20950;-83
2022/04/16 06:17:35;;;;;;;15.07;11.53;;;;;;;4.25;93.88;99682.39;2280811;78;21380;-84
2022/04/16 06:20:35;;;;;;;14.20;10.83;;;;;;;4.26;93.96;99678.10;2280890;78;21325;-83
2022/04/16 06:23:36;;;;;;;13.17;11.17;;;;;;;4.28;93.28;99685.53;2281417;78;20946;-82
2022/04/16 06:26:36;;;;;;;12.33;10.40;;;;;;;4.26;92.71;99686.74;2280853;78;21001;-83
2022/04/16 06:29:36;;;;;;;13.73;10.47;;;;;;;4.26;92.41;99689.73;2280631;78;21056;-83
2022/04/16 06:32:37;;;;;;;14.37;11.87;;;;;;;4.25;91.76;99687.55;2280672;78;20976;-83
2022/04/16 06:35:37;;;;;;;11.10;10.03;;;;;;;4.26;92.27;99709.12;2280699;78;20974;-84
2022/04/16 06:38:41;;;;;;;17.77;12.83;;;;;;;4.28;92.17;99700.63;2281150;78;21005;-83
2022/04/16 06:41:41;;;;;;;10.97;9.60;;;;;;;5.35;98.92;99698.96;2280426;78;20933;-82
2022/04/16 06:44:41;;;;;;;10.17;8.70;;;;;;;5.25;88.46;99694.18;2280308;78;20922;-84
2022/04/16 06:47:42;;;;;;;10.07;8.47;;;;;;;4.94;88.25;99694.41;2280184;78;20918;-82
2022/04/16 06:50:42;;;;;;;10.17;8.57;;;;;;;4.74;88.26;99701.63;2280454;78;20981;-83
2022/04/16 06:53:43;;;;;;;13.90;9.17;;;;;;;4.72;88.64;99700.67;2280231;77;21270;-83
2022/04/16 06:56:43;;;;;;;9.57;8.23;;;;;;;4.81;88.29;99707.58;2280276;78;20942;-83
2022/04/16 06:59:43;;;;;;;11.40;8.90;;;;;;;4.86;87.27;99720.33;2287514;77;20988;-84
2022/04/16 07:02:44;;;;;;;12.70;9.40;;;;;;;4.81;88.33;99712.75;2290332;78;21012;-82
2022/04/16 07:05:44;;;;;;;9.87;8.30;;;;;;;4.78;87.43;99719.96;2291069;78;20979;-84
2022/04/16 07:08:44;;;;;;;9.50;8.60;;;;;;;4.75;87.71;99725.39;2290740;78;20994;-82
2022/04/16 07:11:45;;;;;;;8.97;8.07;;;;;;;4.74;88.14;99727.49;2290916;78;20988;-83
2022/04/16 07:14:45;;;;;;;10.40;8.93;;;;;;;4.71;88.34;99724.76;2290996;78;20959;-83
2022/04/16 07:17:46;;;;;;;8.97;8.00;;;;;;;4.68;88.18;99733.66;2291244;78;20987;-82
2022/04/16 07:20:47;;;;;;;49.97;38.43;;;;;;;4.59;86.60;99742.26;2291608;78;20984;-84
2022/04/16 07:23:48;;;;;;;11.13;9.70;;;;;;;5.05;89.83;99734.63;2267719;78;20987;-84
2022/04/16 07:26:49;;;;;;;7.20;6.50;;;;;;;5.53;85.24;99746.83;2290850;78;21343;-82
2022/04/16 07:29:52;;;;;;;8.43;6.83;;;;;;;5.15;83.51;99749.30;2291142;78;21067;-82
2022/04/16 07:32:49;;;;;;;9.73;7.33;;;;;;;4.92;83.64;99756.84;2291035;78;21355;-81
2022/04/16 07:35:50;;;;;;;11.03;8.10;;;;;;;4.86;84.72;99754.36;2290369;78;20908;-82
2022/04/16 07:38:50;;;;;;;11.03;8.00;;;;;;;4.90;84.14;99754.99;2290740;78;21011;-83
2022/04/16 07:41:51;;;;;;;7.83;6.87;;;;;;;4.94;84.90;99758.21;2290957;78;21355;-82
2022/04/16 07:44:51;;;;;;;7.43;6.03;;;;;;;4.93;83.59;99760.31;2291274;78;20897;-82
2022/04/16 07:47:51;;;;;;;8.77;6.80;;;;;;;4.85;83.75;99776.76;2290177;78;21864;-81
2022/04/16 07:50:52;;;;;;;6.87;6.17;;;;;;;4.79;83.93;99777.75;2289890;78;21034;-82
2022/04/16 07:53:52;;;;;;;6.10;5.50;;;;;;;4.78;84.42;99783.73;2290356;78;21043;-82
2022/04/16 07:56:53;;;;;;;7.47;5.97;;;;;;;4.70;82.45;99779.88;2289901;78;20964;-81
2022/04/16 07:59:56;;;;;;;6.53;5.83;;;;;;;4.66;83.05;99793.47;2282676;78;21411;-81
2022/04/16 08:02:53;;;;;;;7.17;6.20;;;;;;;4.63;82.35;99789.44;2280976;78;20934;-81
2022/04/16 08:05:54;;;;;;;6.50;5.80;;;;;;;4.66;83.51;99794.36;2281339;78;21358;-81
2022/04/16 08:09:01;;;;;;;24.23;20.40;;;;;;;4.79;82.60;99807.50;2281169;77;20945;-82
2022/04/16 08:11:58;;;;;;;61.80;49.93;;;;;;;4.96;83.72;99805.34;2282230;78;21016;-83
2022/04/16 08:14:58;;;;;;;6.73;6.03;;;;;;;6.30;87.56;99797.45;2281433;78;20910;-82
2022/04/16 08:17:58;;;;;;;13.93;7.27;;;;;;;6.71;76.58;99804.41;2281208;78;20942;-82
2022/04/16 08:20:59;;;;;;;7.17;5.23;;;;;;;6.41;72.23;99819.95;2281590;77;21019;-85
2022/04/16 08:24:13;;;;;;;5.27;4.23;;;;;;;6.27;76.04;99809.39;2281609;78;20922;-82
2022/04/16 08:27:02;;;;;;;4.63;4.23;;;;;;;6.66;72.28;99811.11;2281685;77;20902;-81
2022/04/16 08:30:03;;;;;;;6.33;4.00;;;;;;;6.79;69.02;99809.92;2281562;78;21021;-82
2022/04/16 08:33:03;;;;;;;4.50;4.10;;;;;;;6.78;70.53;99813.34;2281607;77;20962;-84
2022/04/16 08:36:03;;;;;;;3.57;3.27;;;;;;;7.10;66.72;99813.81;2281439;77;21388;-82
2022/04/16 08:39:04;;;;;;;9.00;6.40;;;;;;;7.54;64.96;99822.09;2281372;78;20946;-81
2022/04/16 08:42:04;;;;;;;4.27;3.87;;;;;;;8.14;67.35;99808.38;2281200;78;20934;-81
2022/04/16 08:45:04;;;;;;;51.07;44.40;;;;;;;8.44;60.97;99816.44;2282006;78;20935;-82
2022/04/16 08:48:05;;;;;;;47.70;40.67;;;;;;;9.29;66.37;99817.19;2281992;78;20977;-83
2022/04/16 08:51:05;;;;;;;6.70;5.30;;;;;;;9.44;61.62;99822.48;2281744;78;21350;-82
2022/04/16 08:54:06;;;;;;;4.30;3.23;;;;;;;9.28;57.03;99816.73;2281471;78;20953;-81
2022/04/16 08:57:06;;;;;;;4.37;3.43;;;;;;;8.59;58.38;99818.28;2281452;78;20977;-83
2022/04/16 09:00:07;;;;;;;2.90;2.70;;;;;;;8.34;59.49;99816.94;2288457;77;20984;-82
2022/04/16 09:03:09;;;;;;;9.13;8.20;;;;;;;8.04;58.31;99827.07;2291152;78;20972;-82
2022/04/16 09:06:07;;;;;;;3.70;2.97;;;;;;;7.97;60.59;99819.04;2291393;78;20928;-82
2022/04/16 09:09:09;;;;;;;4.13;3.10;;;;;;;8.06;56.66;99838.00;2291739;78;20967;-82
2022/04/16 09:12:08;;;;;;;5.50;3.57;;;;;;;8.08;57.49;99836.76;2291350;78;21366;-82
2022/04/16 09:15:09;;;;;;;3.20;2.80;;;;;;;7.80;55.27;99830.89;2291791;78;20940;-83
2022/04/16 09:18:09;;;;;;;6.87;4.30;;;;;;;7.65;55.92;99825.98;2291711;78;21311;-83
2022/04/16 09:21:09;;;;;;;5.77;3.70;;;;;;;7.63;57.03;99832.42;2291838;78;20897;-82
2022/04/16 09:24:11;;;;;;;5.83;4.00;;;;;;;8.07;58.88;99833.27;2291776;78;20991;-82
2022/04/16 09:27:10;;;;;;;30.93;24.47;;;;;;;8.22;54.96;99839.04;2291729;78;20963;-82
2022/04/16 09:30:11;;;;;;;18.57;14.53;;;;;;;8.60;58.49;99843.47;2291666;78;20974;-83
2022/04/16 09:33:11;;;;;;;4.87;3.77;;;;;;;9.19;53.98;99844.66;2291074;78;21390;-82
2022/04/16 09:36:11;;;;;;;4.97;3.53;;;;;;;9.03;54.65;99839.78;2291387;78;20960;-82
2022/04/16 09:39:12;;;;;;;4.37;3.23;;;;;;;8.69;55.02;99841.23;2291372;78;20944;-83
2022/04/16 09:42:12;;;;;;;3.07;2.43;;;;;;;8.78;56.41;99840.66;2291445;78;20916;-85
2022/04/16 09:45:13;;;;;;;5.10;2.83;;;;;;;9.11;51.35;99832.69;2291525;78;20972;-83
2022/04/16 09:48:13;;;;;;;4.67;2.67;;;;;;;9.38;53.11;99825.30;2291438;78;20984;-83
2022/04/16 09:51:13;;;;;;;6.17;3.30;;;;;;;9.27;54.06;99854.92;2291464;78;20994;-82
2022/04/16 09:54:14;;;;;;;3.70;2.77;;;;;;;9.57;50.04;99862.88;2291381;78;20912;-82
2022/04/16 09:57:14;;;;;;;3.17;2.03;;;;;;;9.55;49.80;99862.83;2291400;78;21577;-85
2022/04/16 10:00:15;;;;;;;5.23;2.50;;;;;;;8.77;49.07;99877.52;2284353;77;21017;-83
2022/04/16 10:03:15;;;;;;;22.50;19.37;;;;;;;8.48;51.78;99872.55;2280924;78;21016;-84
2022/04/16 10:06:15;;;;;;;28.13;23.47;;;;;;;8.78;53.16;99902.73;2281340;78;21382;-84
2022/04/16 10:09:28;;;;;;;115.23;98.93;;;;;;;9.26;50.90;99890.92;2281846;78;20996;-83
2022/04/16 10:15:20;;;;;;;7.17;2.87;;;;;;;11.69;45.17;99884.56;2281252;78;20992;-82
2022/04/16 10:18:20;;;;;;;3.27;2.10;;;;;;;10.89;44.91;99880.33;2280929;77;20966;-82
2022/04/16 10:21:21;;;;;;;4.78;2.52;;;;;;;10.47;45.25;99886.13;2281495;77;20956;-83
2022/04/16 10:24:21;;;;;;;2.05;1.90;;;;;;;10.30;45.23;99868.18;2281236;78;20984;-83
2022/04/16 10:27:21;;;;;;;2.37;2.17;;;;;;;10.52;47.12;99883.23;2281531;77;20977;-83
2022/04/16 10:30:22;;;;;;;2.65;2.00;;;;;;;10.11;45.60;99896.30;2281211;78;20965;-83
2022/04/16 10:33:22;;;;;;;3.10;2.00;;;;;;;9.74;47.40;99875.14;2280651;78;21486;-83
2022/04/16 10:36:23;;;;;;;3.17;2.70;;;;;;;9.84;46.92;99865.05;2281046;78;20961;-83
2022/04/16 10:39:23;;;;;;;2.92;2.12;;;;;;;9.97;47.61;99879.34;2281306;78;20906;-84
2022/04/16 10:42:23;;;;;;;75.70;52.00;;;;;;;10.20;44.21;99888.78;2282065;78;20981;-83
2022/04/16 10:45:24;;;;;;;5.50;3.27;;;;;;;10.72;48.22;99880.29;2281596;78;20911;-81
2022/04/16 10:48:25;;;;;;;3.20;2.15;;;;;;;10.78;43.96;99908.77;2281244;78;20929;-82
2022/04/16 10:51:25;;;;;;;1.92;1.82;;;;;;;10.69;45.01;99890.66;2281234;77;20977;-84
2022/04/16 10:54:32;;;;;;;1.82;1.72;;;;;;;10.90;46.61;99889.05;2281274;78;20974;-83
2022/04/16 10:57:29;;;;;;;2.95;1.82;;;;;;;10.93;46.14;99899.16;2281083;78;21353;-83
2022/04/16 11:00:29;;;;;;;1.92;1.70;;;;;;;10.57;44.26;99906.86;2288293;77;20980;-82
2022/04/16 11:03:39;;;;;;;2.42;1.70;;;;;;;10.30;44.49;99906.91;2290614;78;21399;-82
2022/04/16 11:06:30;;;;;;;2.40;2.10;;;;;;;10.52;45.28;99893.67;2290803;78;20996;-81
2022/04/16 11:09:30;;;;;;;3.52;2.40;;;;;;;10.32;43.19;99892.59;2291183;78;20955;-82
2022/04/16 11:12:31;;;;;;;31.15;27.77;;;;;;;10.10;45.78;99904.97;2291422;78;20948;-82
2022/04/16 11:15:31;;;;;;;24.77;22.20;;;;;;;10.27;49.68;99914.64;2291894;78;20935;-82
2022/04/16 11:18:32;;;;;;;4.70;3.05;;;;;;;11.48;44.65;99903.23;2291239;77;21617;-82
2022/04/16 11:21:32;;;;;;;2.00;1.80;;;;;;;11.01;42.62;99903.28;2290966;78;20988;-82
2022/04/16 11:24:32;;;;;;;13.38;3.72;;;;;;;10.97;42.35;99906.66;2290894;78;20948;-83
2022/04/16 11:34:20;;;;;;;4.90;3.50;;;;;;;10.44;45.62;99923.89;2291206;77;21004;-83
2022/04/16 11:37:17;;;;;;;4.80;3.47;;;;;;;10.20;45.23;99922.70;2291151;78;21008;-83
2022/04/16 11:40:17;;;;;;;3.00;2.08;;;;;;;10.04;44.39;99919.13;2291261;78;20944;-84
2022/04/16 11:43:17;;;;;;;6.47;1.98;;;;;;;10.30;45.58;99919.95;2291085;78;21260;-82
2022/04/16 11:46:18;;;;;;;2.05;1.95;;;;;;;10.56;44.11;99926.39;2290486;78;20940;-83
2022/04/16 11:49:18;;;;;;;4.28;2.70;;;;;;;10.48;41.87;99926.17;2291150;78;20988;-82
2022/04/16 11:52:18;;;;;;;2.23;2.03;;;;;;;10.20;44.55;99926.62;2290199;78;21334;-81
2022/04/16 11:55:22;;;;;;;2.50;2.30;;;;;;;10.01;44.74;99919.03;2290642;78;20880;-82
2022/04/16 11:58:22;;;;;;;5.35;2.80;;;;;;;10.27;44.11;99929.41;2290773;78;20916;-82
2022/04/16 12:01:22;;;;;;;234.90;208.07;;;;;;;10.68;44.51;99917.60;2282037;78;21795;-83
2022/04/16 12:04:23;;;;;;;4.73;4.13;;;;;;;10.97;48.65;99924.52;2280724;78;20957;-81
2022/04/16 12:07:23;;;;;;;2.40;2.20;;;;;;;10.95;42.08;99930.13;2280325;77;20918;-83
2022/04/16 12:10:24;;;;;;;1.50;1.40;;;;;;;10.33;42.00;99945.25;2280751;78;21412;-83
2022/04/16 12:13:24;;;;;;;1.90;1.72;;;;;;;10.14;42.75;99935.53;2280823;77;20941;-81
2022/04/16 12:16:24;;;;;;;2.20;1.90;;;;;;;10.38;43.96;99933.23;2281014;78;20954;-82
2022/04/16 12:19:25;;;;;;;2.30;2.10;;;;;;;10.17;43.21;99944.75;2281105;77;21002;-83
2022/04/16 12:22:30;;;;;;;3.10;2.43;;;;;;;9.77;43.71;99937.41;2259493;78;20894;-83
2022/04/16 12:25:30;;;;;;;2.10;1.90;;;;;;;9.73;43.81;99939.44;2280933;77;21351;-82
2022/04/16 12:28:31;;;;;;;2.30;2.07;;;;;;;10.01;43.89;99937.30;2280902;78;21337;-81
2022/04/16 12:31:31;;;;;;;3.33;2.08;;;;;;;10.16;42.21;99953.42;2281596;77;20973;-82
2022/04/16 12:34:31;;;;;;;2.47;2.00;;;;;;;10.25;40.62;99953.27;2281055;77;20973;-81
2022/04/16 12:37:32;;;;;;;2.00;1.90;;;;;;;10.39;42.62;99946.33;2281416;77;20989;-83
2022/04/16 12:40:33;;;;;;;2.47;2.27;;;;;;;10.63;42.00;99947.92;2280617;77;20946;-81
2022/04/16 12:43:33;;;;;;;2.23;2.03;;;;;;;10.48;41.45;99956.19;2280722;78;20965;-83
2022/04/16 12:46:33;;;;;;;2.97;2.67;;;;;;;10.19;40.68;99961.34;2280403;78;21307;-83
2022/04/16 12:49:33;;;;;;;3.22;2.58;;;;;;;10.32;41.69;99957.42;2280966;78;20907;-82
2022/04/16 12:52:34;;;;;;;2.30;2.00;;;;;;;10.57;41.26;99958.19;2281005;78;21373;-83
2022/04/16 12:55:35;;;;;;;2.25;1.72;;;;;;;10.35;40.75;99950.10;2281723;78;20918;-83
2022/04/16 12:58:35;;;;;;;3.83;2.00;;;;;;;10.25;39.01;99967.62;2281244;78;20942;-82
2022/04/16 13:01:35;;;;;;;2.47;2.00;;;;;;;10.19;39.08;99960.04;2250392;77;20929;-83
2022/04/16 13:04:37;;;;;;;91.22;73.67;;;;;;;10.29;39.19;99959.05;2248398;79;21006;-83
2022/04/16 13:07:36;;;;;;;47.87;41.03;;;;;;;10.75;47.13;99941.33;2248927;79;20944;-83
2022/04/16 13:10:36;;;;;;;51.28;43.38;;;;;;;11.68;43.99;99961.27;2249006;79;21335;-82
2022/04/16 13:13:38;;;;;;;59.95;53.28;;;;;;;11.69;42.38;99966.53;2249066;79;20892;-82
2022/04/16 13:16:38;;;;;;;2.00;1.90;;;;;;;11.31;40.91;99965.97;2249318;79;20924;-84
2022/04/16 13:19:37;;;;;;;2.02;1.90;;;;;;;10.58;37.01;99960.84;2248827;78;21441;-82
2022/04/16 13:22:38;;;;;;;2.90;2.20;;;;;;;10.39;38.45;99958.48;2248603;78;20951;-85
2022/04/16 13:25:38;;;;;;;3.00;2.17;;;;;;;10.57;40.10;99953.85;2248968;78;20956;-82
2022/04/16 13:28:39;;;;;;;2.17;1.98;;;;;;;10.92;38.86;99965.73;2249325;79;20896;-83
2022/04/16 13:35:17;;;;;;;2.10;1.90;;;;;;;10.30;39.97;99963.44;2262552;79;23008;-82
2022/04/16 13:38:17;;;;;;;6.33;2.30;;;;;;;10.05;39.59;99985.23;2229313;80;21379;-81
2022/04/16 13:44:37;;;;;;;2.40;2.20;;;;;;;9.85;41.43;99972.43;2228478;80;20995;-82
2022/04/16 13:47:37;;;;;;;3.60;2.00;;;;;;;9.88;39.11;99982.08;2228263;80;21011;-83
2022/04/16 13:50:37;;;;;;;6.27;3.57;;;;;;;9.72;39.94;99985.02;2228947;80;20951;-82
2022/04/16 13:53:38;;;;;;;3.43;2.50;;;;;;;9.80;39.33;99996.17;2229165;80;21028;-82
2022/04/16 13:56:38;;;;;;;2.03;1.93;;;;;;;10.05;38.42;99978.29;2229564;80;20940;-83
2022/04/16 13:59:39;;;;;;;36.83;30.57;;;;;;;9.91;38.79;99987.39;2229002;80;20960;-84
2022/04/16 14:02:39;;;;;;;3.67;2.70;;;;;;;9.99;43.66;99994.16;2228464;80;21023;-83
2022/04/16 14:05:42;;;;;;;3.90;2.60;;;;;;;10.06;39.32;99981.78;2228682;80;21055;-82
2022/04/16 14:08:43;;;;;;;5.40;3.60;;;;;;;9.85;40.17;99972.85;2228255;80;20960;-82
2022/04/16 14:11:45;;;;;;;4.77;3.00;;;;;;;9.72;39.68;99994.14;2228289;80;21011;-83
2022/04/16 14:14:44;;;;;;;4.53;2.40;;;;;;;9.74;40.40;99978.13;2228683;80;20971;-82
2022/04/16 14:17:44;;;;;;;3.17;2.47;;;;;;;10.09;41.11;99972.75;2228941;80;20964;-83
2022/04/16 14:20:44;;;;;;;4.63;3.17;;;;;;;10.09;40.13;99967.53;2229169;80;20983;-83
2022/04/16 14:23:45;;;;;;;4.43;3.07;;;;;;;9.85;40.20;99991.11;2228972;80;21015;-82
2022/04/16 14:26:46;;;;;;;3.90;3.17;;;;;;;9.67;39.72;99991.80;2229226;80;20952;-83
2022/04/16 14:29:46;;;;;;;3.13;2.73;;;;;;;9.48;40.91;99991.14;2229254;80;21327;-83
2022/04/16 14:32:46;;;;;;;2.87;2.30;;;;;;;9.29;40.34;99985.24;2228693;80;21402;-81
2022/04/16 14:35:47;;;;;;;2.33;2.13;;;;;;;9.21;41.31;99981.06;2222861;80;20966;-83
2022/04/16 14:38:47;;;;;;;4.47;2.83;;;;;;;9.36;40.75;99988.11;2222984;80;20933;-82
2022/04/16 14:41:47;;;;;;;2.17;1.80;;;;;;;9.25;41.37;99990.77;2222977;80;20924;-81
2022/04/16 14:44:52;;;;;;;3.43;2.43;;;;;;;9.30;40.54;99975.29;2222084;80;21340;-82